Time;durP1;ratioP1;P1;durP2;ratioP2;P2;SDS_P1;SDS_P2;PMS_P1;PMS_P2;Temp;Humidity;BMP_temperature;BMP_pressure;BME280_temperature;BME280_humidity;BME280_pressure;Samples;Min_cycle;Max_cycle;Signal;HPM_P1;HPM_P2
2022/01/12 00:01:09;;;;;;;19.40;17.57;;;-1.40;99.90;;;;;;5078463;28;20468;-77
2022/01/12 00:03:36;;;;;;;19.77;17.60;;;-1.40;99.90;;;;;;5075439;28;20858;-77
2022/01/12 00:06:06;;;;;;;19.63;17.63;;;-1.40;99.90;;;;;;5073996;28;20902;-77
2022/01/12 00:08:33;;;;;;;19.03;17.47;;;-1.40;99.90;;;;;;5075585;28;20463;-77
2022/01/12 00:11:01;;;;;;;19.70;17.90;;;-1.50;99.90;;;;;;5076549;28;20461;-77
2022/01/12 00:13:28;;;;;;;20.17;17.80;;;-1.40;99.90;;;;;;5080911;28;20500;-77
2022/01/12 00:15:55;;;;;;;18.00;16.50;;;-1.40;99.90;;;;;;5076401;28;20551;-77
2022/01/12 00:18:22;;;;;;;19.50;17.70;;;-1.50;99.90;;;;;;5077372;28;20445;-78
2022/01/12 00:20:49;;;;;;;19.47;17.67;;;-1.50;99.90;;;;;;5075113;28;20469;-77
2022/01/12 00:23:18;;;;;;;21.47;19.37;;;-1.50;99.90;;;;;;5085692;28;20865;-77
2022/01/12 00:25:58;;;;;;;21.20;19.10;;;-1.50;99.90;;;;;;5086455;28;20425;-78
2022/01/12 00:33:57;;;;;;;19.53;17.63;;;-1.60;99.90;;;;;;5057679;28;20430;-77
2022/01/12 00:36:24;;;;;;;19.50;17.77;;;-1.60;99.90;;;;;;5063527;28;20534;-77
2022/01/12 00:38:52;;;;;;;20.00;18.10;;;-1.70;99.90;;;;;;5061568;28;20836;-77
2022/01/12 00:41:20;;;;;;;19.33;17.53;;;-1.60;99.90;;;;;;5056618;28;20516;-77
2022/01/12 00:43:50;;;;;;;19.47;17.70;;;-1.70;99.90;;;;;;5061975;28;20503;-77
2022/01/12 00:46:18;;;;;;;20.33;18.47;;;-1.70;99.90;;;;;;5063360;28;20449;-76
2022/01/12 00:48:45;;;;;;;21.00;19.00;;;-1.70;99.90;;;;;;5056787;28;20501;-77
2022/01/12 00:51:11;;;;;;;21.43;19.43;;;-1.70;99.90;;;;;;5062401;28;20477;-77
2022/01/12 00:53:40;;;;;;;20.50;18.60;;;-1.70;99.90;;;;;;5064746;28;20950;-77
2022/01/12 00:56:08;;;;;;;19.63;17.80;;;-1.80;99.90;;;;;;5063592;28;20522;-77
2022/01/12 00:58:35;;;;;;;20.27;18.40;;;-1.90;99.90;;;;;;5058436;28;20436;-77
2022/01/12 01:01:02;;;;;;;20.87;18.87;;;-1.90;99.90;;;;;;5061633;28;20830;-77
2022/01/12 01:03:30;;;;;;;20.57;18.57;;;-2.00;99.90;;;;;;5051435;28;20460;-77
2022/01/12 01:05:58;;;;;;;20.20;18.37;;;-2.00;99.90;;;;;;5058929;28;20798;-77
2022/01/12 01:08:25;;;;;;;19.87;18.07;;;-2.00;99.90;;;;;;5062470;28;20454;-77
2022/01/12 01:10:54;;;;;;;20.37;18.30;;;-1.90;99.90;;;;;;5061897;28;21029;-77
2022/01/12 01:13:33;;;;;;;20.30;18.50;;;-2.00;99.90;;;;;;5063991;28;20469;-77
2022/01/12 01:16:10;;;;;;;20.57;18.70;;;-2.00;99.90;;;;;;5057415;28;20916;-77
2022/01/12 01:26:59;;;;;;;20.40;18.40;;;-2.20;99.90;;;;;;5056314;28;20870;-77
2022/01/12 01:29:31;;;;;;;19.97;18.27;;;-2.20;99.90;;;;;;5052622;28;20442;-77
2022/01/12 01:32:03;;;;;;;20.83;18.73;;;-2.20;99.90;;;;;;5056958;28;20455;-77
2022/01/12 01:34:32;;;;;;;20.50;18.60;;;-2.20;99.90;;;;;;5074980;28;20453;-77
2022/01/12 01:37:00;;;;;;;21.57;19.50;;;-2.30;99.90;;;;;;5078351;28;20476;-77
2022/01/12 01:39:29;;;;;;;19.90;18.10;;;-2.30;99.90;;;;;;5056687;28;20421;-77
2022/01/12 01:42:05;;;;;;;20.73;18.73;;;-2.20;99.90;;;;;;5056525;28;20471;-77
2022/01/12 01:55:35;;;;;;;20.50;18.53;;;-2.50;99.90;;;;;;5052512;28;20509;-77
2022/01/12 01:58:04;;;;;;;19.73;18.00;;;-2.50;99.90;;;;;;5058013;28;20800;-77
2022/01/12 02:00:35;;;;;;;19.77;17.87;;;-2.50;99.90;;;;;;5052146;28;20998;-77
2022/01/12 02:03:06;;;;;;;19.60;17.87;;;-2.50;99.90;;;;;;5060201;28;20446;-77
2022/01/12 02:05:44;;;;;;;21.67;19.50;;;-2.50;99.90;;;;;;5053670;28;20445;-77
2022/01/12 02:08:11;;;;;;;21.13;19.13;;;-2.40;99.90;;;;;;5060748;28;20984;-77
2022/01/12 02:10:57;;;;;;;20.37;18.57;;;-2.40;99.90;;;;;;5055244;28;20840;-77
2022/01/12 02:13:25;;;;;;;21.13;18.93;;;-2.30;99.90;;;;;;5062457;28;20827;-77
2022/01/12 02:15:55;;;;;;;21.73;19.57;;;-2.20;99.90;;;;;;5059282;28;20568;-77
2022/01/12 02:18:36;;;;;;;20.37;18.47;;;-2.10;99.90;;;;;;5054930;28;20450;-77
2022/01/12 02:35:17;;;;;;;20.30;18.40;;;-2.30;99.90;;;;;;5051993;28;20435;-76
2022/01/12 02:40:35;;;;;;;21.23;19.23;;;-2.30;99.90;;;;;;5063737;28;20820;-77
2022/01/12 02:43:10;;;;;;;20.43;18.60;;;-2.30;99.90;;;;;;5058808;28;20492;-77
2022/01/12 02:51:13;;;;;;;19.53;17.87;;;-2.40;99.90;;;;;;5058959;28;20446;-77
2022/01/12 02:53:43;;;;;;;19.90;18.10;;;-2.40;99.90;;;;;;5059668;28;20440;-77
2022/01/12 02:56:19;;;;;;;21.23;19.03;;;-2.50;99.90;;;;;;5059661;28;20496;-77
2022/01/12 02:58:48;;;;;;;21.20;19.10;;;-2.40;99.90;;;;;;5060224;28;20505;-77
2022/01/12 03:01:43;;;;;;;20.37;18.57;;;-2.50;99.90;;;;;;5060328;28;21008;-77
2022/01/12 03:04:11;;;;;;;20.30;18.33;;;-2.50;99.90;;;;;;5057538;28;20954;-77
2022/01/12 03:06:41;;;;;;;20.13;18.23;;;-2.60;99.90;;;;;;5059113;28;21036;-77
2022/01/12 03:09:12;;;;;;;21.30;19.23;;;-2.70;99.90;;;;;;5059057;28;20453;-77
2022/01/12 03:11:40;;;;;;;21.37;19.47;;;-2.70;99.90;;;;;;5058828;28;20444;-77
2022/01/12 03:14:13;;;;;;;22.27;20.07;;;-2.70;99.90;;;;;;5062306;28;20473;-77
2022/01/12 03:16:41;;;;;;;19.97;18.23;;;-2.70;99.90;;;;;;5052768;28;20502;-78
2022/01/12 03:19:14;;;;;;;21.03;18.87;;;-2.80;99.90;;;;;;5055758;28;20460;-77
2022/01/12 03:21:41;;;;;;;21.57;19.50;;;-2.80;99.90;;;;;;5057271;28;20821;-77
2022/01/12 03:24:09;;;;;;;21.10;19.00;;;-2.80;99.90;;;;;;5076191;28;20446;-77
2022/01/12 03:26:36;;;;;;;21.20;19.30;;;-2.80;99.90;;;;;;5061730;28;20852;-77
2022/01/12 03:29:04;;;;;;;21.43;19.63;;;-2.80;99.90;;;;;;5058571;28;20466;-77
2022/01/12 03:31:34;;;;;;;21.83;19.57;;;-2.80;99.90;;;;;;5054283;28;20555;-77
2022/01/12 03:34:07;;;;;;;21.57;19.50;;;-2.80;99.90;;;;;;5062003;28;20446;-77
2022/01/12 03:36:42;;;;;;;22.33;20.23;;;-2.90;99.90;;;;;;5048419;28;20475;-77
2022/01/12 03:39:14;;;;;;;20.67;18.67;;;-2.90;99.90;;;;;;5060792;28;20542;-77
2022/01/12 03:41:44;;;;;;;21.70;19.70;;;-2.90;99.90;;;;;;5058734;28;20449;-82
2022/01/12 03:44:13;;;;;;;21.57;19.67;;;-2.90;99.90;;;;;;5055441;28;20446;-80
2022/01/12 03:46:46;;;;;;;21.57;19.57;;;-2.80;99.90;;;;;;5065843;28;20856;-78
2022/01/12 03:49:17;;;;;;;20.83;18.83;;;-2.90;99.90;;;;;;5055482;28;20472;-80
2022/01/12 03:51:45;;;;;;;20.60;18.60;;;-2.90;99.90;;;;;;5066634;28;20540;-80
2022/01/12 03:54:13;;;;;;;21.10;19.10;;;-2.90;99.90;;;;;;5052724;28;20817;-80
2022/01/12 03:56:41;;;;;;;22.37;20.27;;;-3.00;99.90;;;;;;5044951;28;20480;-80
2022/01/12 03:59:10;;;;;;;22.27;20.03;;;-3.00;99.90;;;;;;5050875;28;20456;-79
2022/01/12 04:01:37;;;;;;;21.50;19.37;;;-2.90;99.90;;;;;;5055855;28;20487;-79
2022/01/12 04:04:11;;;;;;;22.47;20.37;;;-2.90;99.90;;;;;;5065084;28;20444;-80
2022/01/12 04:09:23;;;;;;;20.83;19.00;;;-2.90;99.90;;;;;;5049163;28;20441;-79
2022/01/12 04:11:50;;;;;;;21.50;19.60;;;-2.90;99.90;;;;;;5063538;28;20444;-79
2022/01/12 04:14:17;;;;;;;23.63;20.63;;;-2.90;99.90;;;;;;5057084;28;20485;-79
2022/01/12 04:16:44;;;;;;;21.63;19.53;;;-2.90;99.90;;;;;;5051784;28;20524;-80
2022/01/12 04:19:12;;;;;;;22.13;20.00;;;-2.90;99.90;;;;;;5053573;28;20946;-80
2022/01/12 04:21:43;;;;;;;21.60;19.47;;;-3.00;99.90;;;;;;5061697;28;20969;-78
2022/01/12 04:24:10;;;;;;;21.70;19.60;;;-3.00;99.90;;;;;;5063548;28;20424;-79
2022/01/12 04:26:38;;;;;;;22.27;19.97;;;-3.00;99.90;;;;;;5062832;28;20499;-78
2022/01/12 04:29:06;;;;;;;21.60;19.60;;;-3.00;99.90;;;;;;5063374;28;20459;-79
2022/01/12 04:31:34;;;;;;;21.53;19.43;;;-3.00;99.90;;;;;;5057492;28;20509;-79
2022/01/12 04:34:01;;;;;;;21.53;19.43;;;-3.00;99.90;;;;;;5065164;28;20452;-79
2022/01/12 04:36:28;;;;;;;23.20;21.10;;;-3.10;99.90;;;;;;5051135;28;20533;-79
2022/01/12 04:38:56;;;;;;;22.97;20.67;;;-3.20;99.90;;;;;;5059112;28;20473;-79
2022/01/12 04:41:24;;;;;;;25.87;23.07;;;-3.20;99.90;;;;;;5062387;28;20468;-78
2022/01/12 04:43:53;;;;;;;25.30;22.80;;;-3.30;99.90;;;;;;5059673;28;20449;-78
2022/01/12 04:49:26;;;;;;;22.37;20.17;;;-3.30;99.90;;;;;;5063982;28;20433;-78
2022/01/12 04:51:54;;;;;;;23.73;21.53;;;-3.30;99.90;;;;;;5062478;28;20441;-77
2022/01/12 04:54:21;;;;;;;24.13;21.80;;;-3.30;99.90;;;;;;5057542;28;21021;-78
2022/01/12 04:56:48;;;;;;;22.97;20.83;;;-3.30;99.90;;;;;;5052334;28;20931;-78
2022/01/12 04:59:17;;;;;;;22.90;20.70;;;-3.30;99.90;;;;;;5060931;28;20969;-78
2022/01/12 05:01:52;;;;;;;21.50;19.53;;;-3.30;99.90;;;;;;5060757;28;20457;-78
2022/01/12 05:07:27;;;;;;;22.73;20.37;;;-3.20;99.90;;;;;;5060878;28;20496;-78
2022/01/12 05:12:51;;;;;;;22.47;20.30;;;-3.30;99.90;;;;;;5051754;28;20816;-78
2022/01/12 05:15:27;;;;;;;21.40;19.33;;;-3.30;99.90;;;;;;5060723;28;20446;-78
2022/01/12 05:17:55;;;;;;;24.17;21.63;;;-3.40;99.90;;;;;;5076990;28;20464;-78
2022/01/12 05:20:23;;;;;;;22.07;20.03;;;-3.40;99.90;;;;;;5064476;28;20923;-78
2022/01/12 05:22:50;;;;;;;22.97;20.67;;;-3.40;99.90;;;;;;5060639;28;20495;-78
2022/01/12 05:25:18;;;;;;;22.07;19.87;;;-3.40;99.90;;;;;;5054952;28;20480;-78
2022/01/12 05:27:45;;;;;;;21.87;19.77;;;-3.50;99.90;;;;;;5078003;28;20499;-78
2022/01/12 05:30:16;;;;;;;22.67;20.47;;;-3.50;99.90;;;;;;5076902;28;20526;-78
2022/01/12 05:32:46;;;;;;;22.30;20.10;;;-3.50;99.90;;;;;;5060320;28;20591;-78
2022/01/12 05:35:20;;;;;;;22.80;20.63;;;-3.60;99.90;;;;;;5063271;28;20449;-78
2022/01/12 05:37:47;;;;;;;23.07;20.87;;;-3.60;99.90;;;;;;5059802;28;20472;-78
2022/01/12 05:40:20;;;;;;;22.20;20.10;;;-3.60;99.90;;;;;;5056375;28;20487;-78
2022/01/12 05:42:49;;;;;;;22.73;20.50;;;-3.60;99.90;;;;;;5063413;28;20448;-77
2022/01/12 05:45:18;;;;;;;23.20;21.00;;;-3.60;99.90;;;;;;5058271;28;20464;-78
2022/01/12 05:50:36;;;;;;;27.43;24.63;;;-3.60;99.90;;;;;;5065914;28;20474;-78
2022/01/12 05:53:10;;;;;;;28.17;24.30;;;-3.60;99.90;;;;;;5057987;28;20543;-78
2022/01/12 05:55:38;;;;;;;30.87;27.77;;;-3.60;99.90;;;;;;5062375;28;20445;-78
2022/01/12 05:58:05;;;;;;;29.30;26.40;;;-3.60;99.90;;;;;;5060912;28;20462;-78
2022/01/12 06:00:32;;;;;;;28.00;25.23;;;-3.60;99.90;;;;;;5061133;28;20470;-78
2022/01/12 06:03:03;;;;;;;26.53;23.83;;;-3.60;99.90;;;;;;5060064;28;20515;-78
2022/01/12 06:05:30;;;;;;;25.57;23.03;;;-3.50;99.90;;;;;;5056069;28;20464;-78
2022/01/12 06:07:58;;;;;;;27.10;24.27;;;-3.60;99.90;;;;;;5061886;28;20463;-78
2022/01/12 06:10:25;;;;;;;27.00;24.27;;;-3.60;99.90;;;;;;5056860;28;20462;-78
2022/01/12 06:12:54;;;;;;;25.27;22.77;;;-3.60;99.90;;;;;;5056850;28;20501;-78
2022/01/12 06:15:24;;;;;;;25.37;22.83;;;-3.60;99.90;;;;;;5062148;28;20460;-78
2022/01/12 06:17:51;;;;;;;24.73;22.23;;;-3.60;99.90;;;;;;5059244;28;20498;-78
2022/01/12 06:20:19;;;;;;;24.03;21.63;;;-3.60;99.90;;;;;;5060966;28;20472;-78
2022/01/12 06:23:05;;;;;;;23.33;21.03;;;-3.60;99.90;;;;;;5061288;28;20428;-78
2022/01/12 06:25:33;;;;;;;21.73;19.60;;;-3.60;99.90;;;;;;5059538;28;21112;-78
2022/01/12 06:28:21;;;;;;;23.73;21.53;;;-3.70;99.90;;;;;;5050877;28;20996;-78
2022/01/12 06:33:31;;;;;;;23.10;20.83;;;-3.70;99.90;;;;;;5062601;28;20435;-79
2022/01/12 06:35:59;;;;;;;24.10;21.70;;;-3.60;99.90;;;;;;5063556;28;20952;-78
2022/01/12 06:38:27;;;;;;;24.30;21.80;;;-3.70;99.90;;;;;;5062001;28;20969;-78
2022/01/12 06:40:54;;;;;;;22.90;20.90;;;-3.70;99.90;;;;;;5062120;28;21023;-78
2022/01/12 06:43:21;;;;;;;23.13;20.93;;;-3.70;99.90;;;;;;5056502;28;20451;-78
2022/01/12 06:45:48;;;;;;;22.97;20.60;;;-3.80;99.90;;;;;;5057257;28;20449;-79
2022/01/12 06:48:15;;;;;;;23.87;21.53;;;-3.80;99.90;;;;;;5058789;28;20483;-78
2022/01/12 06:50:42;;;;;;;24.17;21.77;;;-3.80;99.90;;;;;;5058626;28;20466;-79
2022/01/12 06:53:10;;;;;;;23.40;21.27;;;-3.80;99.90;;;;;;5059254;28;20452;-78
2022/01/12 06:55:37;;;;;;;24.03;21.83;;;-3.80;99.90;;;;;;5054247;28;20447;-78
2022/01/12 06:58:05;;;;;;;23.77;21.33;;;-3.80;99.90;;;;;;5059439;28;20984;-79
2022/01/12 07:00:32;;;;;;;24.17;21.67;;;-3.80;99.90;;;;;;5058841;28;20468;-81
2022/01/12 07:03:00;;;;;;;24.97;22.47;;;-3.80;99.90;;;;;;5056011;28;20458;-78
2022/01/12 07:05:35;;;;;;;24.33;21.93;;;-3.70;99.90;;;;;;5059663;28;20958;-78
2022/01/12 07:08:02;;;;;;;24.40;21.93;;;-3.70;99.90;;;;;;5057128;28;20467;-78
2022/01/12 07:10:36;;;;;;;24.67;22.30;;;-3.60;99.90;;;;;;5051272;28;20481;-78
2022/01/12 07:13:13;;;;;;;23.97;21.57;;;-3.70;99.90;;;;;;5059951;28;20449;-79
2022/01/12 07:15:41;;;;;;;23.37;21.07;;;-3.70;99.90;;;;;;5059896;28;20482;-78
2022/01/12 07:18:09;;;;;;;26.70;23.23;;;-3.80;99.90;;;;;;5059231;28;20461;-78
2022/01/12 07:20:36;;;;;;;25.10;22.63;;;-3.80;99.90;;;;;;5059596;28;20556;-78
2022/01/12 07:23:04;;;;;;;26.87;23.00;;;-3.90;99.90;;;;;;5060126;28;20449;-78
2022/01/12 07:25:31;;;;;;;25.40;22.70;;;-3.90;99.90;;;;;;5055616;28;20429;-78
2022/01/12 07:27:59;;;;;;;25.63;21.97;;;-3.90;99.90;;;;;;5062009;28;20497;-78
2022/01/12 07:30:26;;;;;;;24.53;22.23;;;-3.80;99.90;;;;;;5055452;28;20518;-78
2022/01/12 07:32:53;;;;;;;24.77;22.13;;;-3.80;99.90;;;;;;5055960;28;20459;-78
2022/01/12 07:35:19;;;;;;;26.47;22.53;;;-3.70;99.90;;;;;;5059784;28;20428;-78
2022/01/12 07:37:47;;;;;;;25.13;22.63;;;-3.70;99.90;;;;;;5062887;28;20997;-76
2022/01/12 07:40:14;;;;;;;32.40;24.07;;;-3.60;99.90;;;;;;5063913;28;20470;-78
2022/01/12 07:42:41;;;;;;;24.63;22.03;;;-3.50;99.90;;;;;;5065014;28;20977;-78
2022/01/12 07:45:15;;;;;;;23.03;20.73;;;-3.50;99.90;;;;;;5064994;28;20448;-78
2022/01/12 07:47:42;;;;;;;25.33;22.63;;;-3.50;99.90;;;;;;5059711;28;20500;-78
2022/01/12 07:50:10;;;;;;;24.73;22.13;;;-3.40;99.90;;;;;;5064830;28;20461;-78
2022/01/12 07:52:37;;;;;;;24.80;22.33;;;-3.30;99.90;;;;;;5063495;28;20492;-78
2022/01/12 07:55:05;;;;;;;26.47;23.87;;;-3.30;99.90;;;;;;5060148;28;20440;-78
2022/01/12 07:57:31;;;;;;;24.90;22.43;;;-3.10;99.90;;;;;;5063127;28;20475;-78
2022/01/12 07:59:58;;;;;;;25.27;22.73;;;-3.10;99.90;;;;;;5062139;28;20473;-78
2022/01/12 08:02:27;;;;;;;25.70;22.83;;;-3.00;99.90;;;;;;5063911;28;20493;-78
2022/01/12 08:04:53;;;;;;;27.23;24.27;;;-2.90;99.90;;;;;;5062050;28;20472;-79
2022/01/12 08:07:20;;;;;;;33.20;25.73;;;-2.80;99.90;;;;;;5065843;28;20488;-79
2022/01/12 08:09:47;;;;;;;34.07;28.90;;;-2.70;99.90;;;;;;5061170;28;20474;-79
2022/01/12 08:12:14;;;;;;;36.00;29.37;;;-2.40;99.90;;;;;;5057044;28;20989;-78
2022/01/12 08:14:41;;;;;;;40.93;29.63;;;-2.20;99.90;;;;;;5065090;28;20977;-78
2022/01/12 08:17:08;;;;;;;34.60;27.37;;;-2.10;99.90;;;;;;5059826;28;20467;-78
2022/01/12 08:19:38;;;;;;;28.30;24.23;;;-1.90;99.90;;;;;;5062892;28;20467;-78
2022/01/12 08:22:05;;;;;;;28.80;25.07;;;-1.60;99.90;;;;;;5063278;28;20480;-79
2022/01/12 08:24:32;;;;;;;27.30;24.50;;;-1.30;99.90;;;;;;5061814;28;20457;-79
2022/01/12 08:26:59;;;;;;;26.53;23.77;;;-1.00;99.90;;;;;;5059444;28;20418;-77
2022/01/12 08:29:29;;;;;;;26.83;24.20;;;-0.80;99.90;;;;;;5063105;28;20446;-79
2022/01/12 08:31:57;;;;;;;26.40;23.60;;;-0.30;99.90;;;;;;5063188;28;20444;-79
2022/01/12 08:34:23;;;;;;;25.77;23.10;;;0.00;99.90;;;;;;5057800;28;20933;-79
2022/01/12 08:36:52;;;;;;;26.13;23.43;;;0.20;99.90;;;;;;5055732;28;20520;-79
2022/01/12 08:39:19;;;;;;;24.80;22.20;;;0.40;99.90;;;;;;5063116;28;20445;-78
2022/01/12 08:41:45;;;;;;;24.00;21.73;;;0.70;99.90;;;;;;5061704;28;20446;-78
2022/01/12 08:44:13;;;;;;;24.97;22.63;;;1.00;99.90;;;;;;5063913;28;20434;-79
2022/01/12 08:46:41;;;;;;;23.70;21.40;;;1.00;99.90;;;;;;5063068;28;20503;-78
2022/01/12 08:49:09;;;;;;;24.00;21.70;;;1.00;99.90;;;;;;5063412;28;20546;-79
2022/01/12 08:51:37;;;;;;;24.53;22.30;;;1.10;99.90;;;;;;5059708;28;20519;-80
2022/01/12 08:54:06;;;;;;;26.20;23.70;;;1.30;99.90;;;;;;5058167;28;20989;-78
2022/01/12 08:56:35;;;;;;;26.00;23.57;;;1.40;99.90;;;;;;5065662;28;20901;-79
2022/01/12 08:59:02;;;;;;;25.53;23.17;;;1.60;99.90;;;;;;5060041;28;20485;-79
2022/01/12 09:01:29;;;;;;;25.63;23.23;;;1.60;99.90;;;;;;5062434;28;20482;-79
2022/01/12 09:03:55;;;;;;;25.13;22.67;;;1.70;99.90;;;;;;5061132;28;20445;-79
2022/01/12 09:06:22;;;;;;;24.77;22.57;;;1.70;99.90;;;;;;5060641;28;20454;-78
2022/01/12 09:08:49;;;;;;;26.40;23.70;;;1.70;99.90;;;;;;5061951;28;20467;-79
2022/01/12 09:11:18;;;;;;;24.10;21.90;;;1.80;99.90;;;;;;5065514;28;20875;-79
2022/01/12 09:13:45;;;;;;;25.60;23.13;;;1.90;99.90;;;;;;5061535;28;20962;-79
2022/01/12 09:16:13;;;;;;;25.77;23.33;;;1.70;99.90;;;;;;5057408;28;20481;-79
2022/01/12 09:18:42;;;;;;;24.63;22.27;;;1.70;99.90;;;;;;5058752;28;20485;-79
2022/01/12 09:21:09;;;;;;;25.13;22.80;;;1.60;99.90;;;;;;5061263;28;20463;-79
2022/01/12 09:23:36;;;;;;;24.57;22.27;;;1.50;99.90;;;;;;5062179;28;20552;-79
2022/01/12 09:26:04;;;;;;;24.87;22.57;;;1.30;99.90;;;;;;5060439;28;20466;-79
2022/01/12 09:28:32;;;;;;;24.43;22.13;;;1.20;99.90;;;;;;5061468;28;20448;-79
2022/01/12 09:30:59;;;;;;;24.90;22.50;;;1.20;99.90;;;;;;5062335;28;20460;-79
2022/01/12 09:33:26;;;;;;;24.00;21.80;;;1.00;99.90;;;;;;5061692;28;20434;-79
2022/01/12 09:35:54;;;;;;;23.73;21.43;;;0.90;99.90;;;;;;5063332;28;20852;-78
2022/01/12 09:38:22;;;;;;;24.40;22.00;;;0.80;99.90;;;;;;5057365;28;20468;-79
2022/01/12 09:40:52;;;;;;;25.10;22.97;;;0.90;99.90;;;;;;5057175;28;20535;-79
2022/01/12 09:43:20;;;;;;;24.37;21.90;;;0.80;99.90;;;;;;5063970;28;20513;-79
2022/01/12 09:45:51;;;;;;;24.07;21.77;;;0.70;99.90;;;;;;5060346;28;20454;-79
2022/01/12 09:48:20;;;;;;;25.53;22.90;;;0.60;99.90;;;;;;5061363;28;20447;-78
2022/01/12 09:50:47;;;;;;;23.20;21.17;;;0.50;99.90;;;;;;5061054;28;20469;-79
2022/01/12 09:53:14;;;;;;;24.17;21.87;;;0.60;99.90;;;;;;5059342;28;20458;-79
2022/01/12 09:55:41;;;;;;;25.13;22.77;;;0.60;99.90;;;;;;5059827;28;20478;-79
2022/01/12 09:58:08;;;;;;;24.20;21.90;;;0.60;99.90;;;;;;5060298;28;20474;-79
2022/01/12 10:00:34;;;;;;;24.17;21.93;;;0.70;99.90;;;;;;5071046;28;20468;-79
2022/01/12 10:03:11;;;;;;;24.07;21.77;;;0.70;99.90;;;;;;5073010;28;20486;-79
2022/01/12 10:05:39;;;;;;;24.43;22.20;;;0.70;99.90;;;;;;5065019;28;20448;-79
2022/01/12 10:08:10;;;;;;;23.00;21.00;;;0.70;99.90;;;;;;5062481;28;20499;-79
2022/01/12 10:10:37;;;;;;;23.17;20.80;;;0.70;99.90;;;;;;5060008;28;20453;-79
2022/01/12 10:13:04;;;;;;;23.73;21.50;;;0.70;99.90;;;;;;5056371;28;20455;-79
2022/01/12 10:15:31;;;;;;;22.43;20.47;;;0.80;99.90;;;;;;5059904;28;20519;-79
2022/01/12 10:18:02;;;;;;;24.03;21.83;;;0.90;99.90;;;;;;5060648;28;20474;-79
2022/01/12 10:20:30;;;;;;;21.40;19.60;;;0.90;99.90;;;;;;5057709;28;20450;-80
2022/01/12 10:23:00;;;;;;;22.40;20.23;;;1.10;99.90;;;;;;5062826;28;20447;-79
2022/01/12 10:25:31;;;;;;;21.93;19.83;;;1.10;99.90;;;;;;5057856;28;20434;-79
2022/01/12 10:27:59;;;;;;;22.70;20.40;;;1.10;99.90;;;;;;5067683;28;20481;-79
2022/01/12 10:30:28;;;;;;;21.10;19.27;;;1.10;99.90;;;;;;5058982;28;20450;-79
2022/01/12 10:33:03;;;;;;;21.00;19.17;;;1.10;99.90;;;;;;5064023;28;20525;-79
2022/01/12 10:35:33;;;;;;;22.43;20.27;;;1.20;99.90;;;;;;5064232;28;20449;-79
2022/01/12 10:38:08;;;;;;;20.70;18.70;;;1.30;99.90;;;;;;5063407;28;20498;-78
2022/01/12 10:40:50;;;;;;;19.97;18.13;;;1.40;99.90;;;;;;5051392;28;20477;-79
2022/01/12 10:43:41;;;;;;;19.87;17.97;;;1.40;99.90;;;;;;5059965;28;20438;-79
2022/01/12 10:46:10;;;;;;;22.63;20.43;;;1.30;99.90;;;;;;5042261;28;20442;-78
2022/01/12 10:48:44;;;;;;;21.57;19.67;;;1.30;99.90;;;;;;5054286;28;20447;-78
2022/01/12 10:51:15;;;;;;;20.80;19.00;;;1.20;99.90;;;;;;5058706;28;20548;-79
2022/01/12 10:53:42;;;;;;;21.27;19.07;;;1.20;99.90;;;;;;5060416;28;20518;-79
2022/01/12 10:56:12;;;;;;;20.03;18.27;;;1.20;99.90;;;;;;5062850;28;20442;-79
2022/01/12 10:58:40;;;;;;;22.37;20.27;;;1.20;99.90;;;;;;5054014;28;20463;-79
2022/01/12 11:01:08;;;;;;;21.00;18.90;;;1.20;99.90;;;;;;5060509;28;20469;-79
2022/01/12 11:03:35;;;;;;;19.97;18.13;;;1.20;99.90;;;;;;5060717;28;20553;-79
2022/01/12 11:06:03;;;;;;;20.73;18.83;;;1.30;99.90;;;;;;5063793;28;20437;-79
2022/01/12 11:08:31;;;;;;;19.70;17.93;;;1.30;99.90;;;;;;5048345;28;20449;-78
2022/01/12 11:10:59;;;;;;;18.60;16.90;;;1.30;99.90;;;;;;5064896;28;21048;-79
2022/01/12 11:13:28;;;;;;;19.30;17.37;;;1.40;99.90;;;;;;5058161;28;20446;-79
2022/01/12 11:15:56;;;;;;;18.23;16.50;;;1.40;99.90;;;;;;5057859;28;20454;-79
2022/01/12 11:18:26;;;;;;;17.77;16.27;;;1.40;99.90;;;;;;5061989;28;20573;-79
2022/01/12 11:20:59;;;;;;;17.83;16.17;;;1.40;99.90;;;;;;5061146;28;20512;-79
2022/01/12 11:23:36;;;;;;;19.53;17.73;;;1.40;99.90;;;;;;5065091;28;20433;-79
2022/01/12 11:26:14;;;;;;;19.40;17.40;;;1.40;99.90;;;;;;5059439;28;20431;-80
2022/01/12 11:28:42;;;;;;;19.40;17.70;;;1.40;99.90;;;;;;5061160;28;20469;-79
2022/01/12 11:31:09;;;;;;;19.87;17.80;;;1.40;99.90;;;;;;5062292;28;20533;-79
2022/01/12 11:33:40;;;;;;;20.20;18.27;;;1.40;99.90;;;;;;5058205;28;20490;-79
2022/01/12 11:36:15;;;;;;;18.90;17.20;;;1.40;99.90;;;;;;5064275;28;20445;-79
2022/01/12 11:38:47;;;;;;;19.03;17.50;;;1.40;99.90;;;;;;5060331;28;20472;-80
2022/01/12 11:41:17;;;;;;;20.63;18.73;;;1.50;99.90;;;;;;5055084;28;20481;-79
2022/01/12 11:43:46;;;;;;;20.13;18.20;;;1.50;99.90;;;;;;5059444;28;20456;-79
2022/01/12 11:46:15;;;;;;;19.80;17.90;;;1.50;99.90;;;;;;5061192;28;20838;-79
2022/01/12 11:48:45;;;;;;;19.67;17.93;;;1.50;99.90;;;;;;5059354;28;20438;-79
2022/01/12 11:51:12;;;;;;;21.30;19.30;;;1.50;99.90;;;;;;5061984;28;21017;-78
2022/01/12 11:53:49;;;;;;;20.50;18.50;;;1.50;99.90;;;;;;5055320;28;20449;-78
2022/01/12 11:56:19;;;;;;;19.97;18.07;;;1.50;99.90;;;;;;5055677;28;20445;-78
2022/01/12 11:58:58;;;;;;;19.70;17.70;;;1.40;99.90;;;;;;5064050;28;20469;-79
2022/01/12 12:01:36;;;;;;;20.87;18.97;;;1.40;99.90;;;;;;5058492;28;20877;-79
2022/01/12 12:04:04;;;;;;;19.87;18.07;;;1.50;99.90;;;;;;5058201;28;20439;-79
2022/01/12 12:06:32;;;;;;;21.20;19.30;;;1.60;99.90;;;;;;5064368;28;20464;-79
2022/01/12 12:09:03;;;;;;;20.50;18.60;;;1.50;99.90;;;;;;5061285;28;20469;-79
2022/01/12 12:11:32;;;;;;;19.37;17.67;;;1.60;99.90;;;;;;5053466;28;20453;-79
2022/01/12 12:14:04;;;;;;;19.43;17.63;;;1.60;99.90;;;;;;5056777;28;20501;-79
2022/01/12 12:16:32;;;;;;;20.80;18.90;;;1.60;99.90;;;;;;5059100;28;20500;-78
2022/01/12 12:19:02;;;;;;;21.43;19.33;;;1.70;99.90;;;;;;5061335;28;20465;-79
2022/01/12 12:21:29;;;;;;;20.33;18.33;;;1.70;99.90;;;;;;5048795;28;20455;-80
2022/01/12 12:24:09;;;;;;;19.47;17.77;;;1.70;99.90;;;;;;5067646;28;20429;-79
2022/01/12 12:26:42;;;;;;;20.67;18.87;;;1.70;99.90;;;;;;5056651;28;20466;-79
2022/01/12 12:29:09;;;;;;;21.73;19.80;;;1.70;99.90;;;;;;5052632;28;20464;-78
2022/01/12 12:31:36;;;;;;;21.30;19.47;;;1.70;99.90;;;;;;5066792;28;20971;-79
2022/01/12 12:34:05;;;;;;;22.13;19.93;;;1.70;99.90;;;;;;5063431;28;20461;-79
2022/01/12 12:36:32;;;;;;;21.37;19.37;;;1.70;99.90;;;;;;5067553;28;20855;-79
2022/01/12 12:39:12;;;;;;;21.93;19.77;;;1.70;99.90;;;;;;5068305;28;20478;-78
2022/01/12 12:41:43;;;;;;;22.47;20.43;;;1.80;99.90;;;;;;5075046;28;20501;-79
2022/01/12 12:44:22;;;;;;;22.63;20.30;;;1.80;99.90;;;;;;5067028;28;20450;-79
2022/01/12 12:46:50;;;;;;;22.93;20.53;;;1.90;99.90;;;;;;5066273;28;20457;-79
2022/01/12 12:49:17;;;;;;;20.47;18.60;;;1.90;99.90;;;;;;5063043;28;20464;-79
2022/01/12 12:51:44;;;;;;;22.27;20.23;;;1.90;99.90;;;;;;5062773;28;20431;-79
2022/01/12 12:54:15;;;;;;;22.67;20.47;;;1.90;99.90;;;;;;5065085;28;20435;-79
2022/01/12 12:56:48;;;;;;;21.50;19.37;;;1.90;99.90;;;;;;5056608;28;20553;-79
2022/01/12 12:59:15;;;;;;;22.27;20.07;;;1.90;99.90;;;;;;5063708;28;20461;-78
2022/01/12 13:01:44;;;;;;;21.27;19.40;;;1.90;99.90;;;;;;5064455;28;20867;-79
2022/01/12 13:04:13;;;;;;;21.70;19.70;;;1.90;99.90;;;;;;5067095;28;20922;-79
2022/01/12 13:06:40;;;;;;;20.50;18.53;;;2.00;99.90;;;;;;5061636;28;20452;-78
2022/01/12 13:09:09;;;;;;;20.73;18.83;;;2.00;99.90;;;;;;5050773;28;20960;-78
2022/01/12 13:11:38;;;;;;;20.43;18.37;;;2.00;99.90;;;;;;5066075;28;20558;-79
2022/01/12 13:14:07;;;;;;;20.43;18.63;;;2.00;99.90;;;;;;5057155;28;20453;-79
2022/01/12 13:16:34;;;;;;;20.43;18.63;;;2.10;99.90;;;;;;5063983;28;20448;-78
2022/01/12 13:19:07;;;;;;;19.40;17.67;;;2.10;99.90;;;;;;5063721;28;21007;-79
2022/01/12 13:21:35;;;;;;;19.23;17.53;;;2.00;99.90;;;;;;5063355;28;21096;-80
2022/01/12 13:24:03;;;;;;;17.40;15.83;;;2.00;99.90;;;;;;5063426;28;20454;-79
2022/01/12 13:26:36;;;;;;;18.63;16.93;;;2.10;99.90;;;;;;5058400;28;20824;-78
2022/01/12 13:29:08;;;;;;;20.10;18.20;;;2.10;99.90;;;;;;5056813;28;20808;-79
2022/01/12 13:31:35;;;;;;;19.40;17.70;;;2.10;99.90;;;;;;5058611;28;20477;-79
2022/01/12 13:34:04;;;;;;;19.57;17.87;;;2.10;99.90;;;;;;5059777;28;20444;-79
2022/01/12 13:36:32;;;;;;;18.80;17.10;;;2.20;99.90;;;;;;5055469;28;20446;-80
2022/01/12 13:39:01;;;;;;;20.23;18.33;;;2.20;99.90;;;;;;5061750;28;20527;-79
2022/01/12 13:41:30;;;;;;;20.47;18.67;;;2.20;99.90;;;;;;5062281;28;20485;-78
2022/01/12 13:43:59;;;;;;;20.40;18.50;;;2.20;99.90;;;;;;5063426;28;20449;-78
2022/01/12 13:46:37;;;;;;;20.43;18.53;;;2.20;99.90;;;;;;5062549;28;21044;-79